Time;durP1;ratioP1;P1;durP2;ratioP2;P2;SDS_P1;SDS_P2;PMS_P1;PMS_P2;Temp;Humidity;BMP_temperature;BMP_pressure;BME280_temperature;BME280_humidity;BME280_pressure;Samples;Min_cycle;Max_cycle;Signal;HPM_P1;HPM_P2
2021/11/18 00:01:18;;;;;;;25.02;9.55;;;;;;;6.17;100.00;102540.84;10586504;28;20048;-60
2021/11/18 00:06:20;;;;;;;17.95;7.63;;;;;;;6.20;100.00;102545.13;10586185;28;20514;-61
2021/11/18 00:11:23;;;;;;;19.52;8.15;;;;;;;6.22;100.00;102530.34;10586296;28;20044;-61
2021/11/18 00:16:26;;;;;;;26.67;8.15;;;;;;;6.10;100.00;102531.34;10586402;28;20054;-61
2021/11/18 00:21:30;;;;;;;26.58;9.65;;;;;;;6.07;100.00;102534.88;10585698;28;20548;-61
2021/11/18 00:26:33;;;;;;;26.17;9.68;;;;;;;6.06;100.00;102546.13;10585093;28;20123;-61
2021/11/18 00:31:38;;;;;;;30.50;8.32;;;;;;;6.12;100.00;102553.88;10585362;28;20047;-61
2021/11/18 00:36:41;;;;;;;26.73;8.93;;;;;;;6.02;100.00;102549.66;10585246;28;20414;-61
2021/11/18 00:41:43;;;;;;;27.35;10.07;;;;;;;6.04;100.00;102566.09;10584965;28;20486;-61
2021/11/18 00:46:46;;;;;;;23.55;8.68;;;;;;;6.00;100.00;102569.63;10566909;28;20079;-62
2021/11/18 00:51:49;;;;;;;23.98;10.30;;;;;;;6.03;100.00;102584.31;10585288;28;20059;-62
2021/11/18 00:56:52;;;;;;;21.17;9.60;;;;;;;5.97;100.00;102574.84;10585007;28;20056;-62
2021/11/18 01:01:55;;;;;;;32.85;10.07;;;;;;;5.99;100.00;102559.22;10566618;28;20127;-61
2021/11/18 01:06:58;;;;;;;24.67;10.20;;;;;;;5.89;100.00;102546.28;10584439;28;20047;-61
2021/11/18 01:12:01;;;;;;;20.35;10.02;;;;;;;5.97;100.00;102554.03;10583933;28;20047;-60
2021/11/18 01:17:04;;;;;;;25.98;12.43;;;;;;;5.93;100.00;102550.59;10565786;28;20055;-60
2021/11/18 01:22:07;;;;;;;37.28;11.90;;;;;;;5.93;100.00;102554.91;10565272;28;20392;-61
2021/11/18 01:27:10;;;;;;;29.08;10.90;;;;;;;5.84;100.00;102562.81;10583139;28;20480;-61
2021/11/18 01:32:12;;;;;;;29.75;12.07;;;;;;;5.88;100.00;102560.13;10582779;28;20050;-61
2021/11/18 01:37:15;;;;;;;26.92;12.18;;;;;;;5.87;100.00;102557.59;10583153;28;20048;-61
2021/11/18 01:42:17;;;;;;;34.50;12.40;;;;;;;5.76;100.00;102576.72;10564810;28;20419;-61
2021/11/18 01:47:20;;;;;;;30.45;12.60;;;;;;;5.87;100.00;102587.03;10564521;28;20050;-61
2021/11/18 01:52:25;;;;;;;24.42;13.27;;;;;;;5.83;100.00;102613.06;10582529;28;20047;-61
2021/11/18 01:57:31;;;;;;;30.15;11.45;;;;;;;5.88;100.00;102606.94;10582223;28;20470;-61
2021/11/18 02:02:35;;;;;;;42.45;14.02;;;;;;;5.83;100.00;102608.72;10582046;28;20043;-60
2021/11/18 02:07:39;;;;;;;21.50;10.20;;;;;;;5.80;100.00;102603.56;10564177;28;20483;-61
2021/11/18 02:12:41;;;;;;;27.25;11.60;;;;;;;5.85;100.00;102619.97;10582086;28;20055;-60
2021/11/18 02:17:44;;;;;;;25.08;11.95;;;;;;;5.89;100.00;102600.88;10581924;28;20055;-62
2021/11/18 02:22:46;;;;;;;34.70;12.63;;;;;;;5.80;100.00;102595.78;10581475;28;20047;-61
2021/11/18 02:27:48;;;;;;;29.35;12.27;;;;;;;5.86;100.00;102607.84;10581452;28;20402;-60
2021/11/18 02:32:51;;;;;;;30.88;12.70;;;;;;;5.83;100.00;102611.31;10581201;28;20561;-61
2021/11/18 02:37:54;;;;;;;25.98;12.02;;;;;;;5.91;100.00;102600.84;10581962;28;20044;-61
2021/11/18 02:42:58;;;;;;;28.63;12.68;;;;;;;5.86;100.00;102618.22;10562886;28;20062;-62
2021/11/18 02:48:01;;;;;;;27.60;12.32;;;;;;;5.93;100.00;102591.31;10564163;28;20402;-62
2021/11/18 02:53:04;;;;;;;26.35;11.05;;;;;;;6.03;100.00;102600.78;10589403;28;20058;-61
2021/11/18 02:58:06;;;;;;;23.60;12.25;;;;;;;6.07;100.00;102609.41;10589447;28;20047;-61
2021/11/18 03:03:09;;;;;;;34.85;12.63;;;;;;;6.06;100.00;102598.16;10588964;28;20505;-60
2021/11/18 03:08:11;;;;;;;24.95;13.18;;;;;;;6.09;100.00;102589.47;10571055;28;20063;-60
2021/11/18 03:13:15;;;;;;;29.85;11.48;;;;;;;6.10;100.00;102588.56;10589081;28;20057;-60
2021/11/18 03:18:17;;;;;;;37.95;13.93;;;;;;;6.13;100.00;102594.59;10570380;28;20411;-60
2021/11/18 03:23:20;;;;;;;27.70;11.95;;;;;;;6.14;100.00;102598.94;10588271;28;20051;-62
2021/11/18 03:28:27;;;;;;;28.45;12.73;;;;;;;6.17;100.00;102592.84;10569900;28;20426;-61
2021/11/18 03:33:33;;;;;;;26.40;13.80;;;;;;;6.14;100.00;102600.69;10587610;28;20052;-60
2021/11/18 03:38:35;;;;;;;31.05;13.60;;;;;;;6.10;100.00;102610.25;10587987;28;20051;-60
2021/11/18 03:44:00;;;;;;;38.58;13.55;;;;;;;6.15;100.00;102612.78;10587987;28;20053;-60
2021/11/18 03:49:03;;;;;;;32.28;14.80;;;;;;;6.17;100.00;102621.47;10587007;28;20048;-61
2021/11/18 03:54:07;;;;;;;34.25;14.18;;;;;;;6.06;100.00;102626.75;10587168;28;20055;-61
2021/11/18 03:59:16;;;;;;;27.48;14.05;;;;;;;6.09;100.00;102629.31;10568185;28;20055;-62
2021/11/18 04:04:23;;;;;;;33.88;15.48;;;;;;;6.06;100.00;102631.94;10586424;28;20479;-61
2021/11/18 04:09:26;;;;;;;25.27;12.10;;;;;;;6.17;100.00;102630.97;10586151;28;20496;-60
2021/11/18 04:14:30;;;;;;;40.05;13.40;;;;;;;6.12;100.00;102629.31;10586380;28;20043;-61
2021/11/18 04:19:33;;;;;;;41.20;16.02;;;;;;;6.11;100.00;102624.13;10585989;28;20047;-61
2021/11/18 04:24:37;;;;;;;32.80;13.38;;;;;;;6.17;100.00;102628.38;10567746;28;20499;-61
2021/11/18 04:29:39;;;;;;;41.28;15.27;;;;;;;6.22;100.00;102614.47;10585514;28;20047;-60
2021/11/18 04:34:42;;;;;;;36.92;13.98;;;;;;;6.28;100.00;102617.00;10586124;28;20043;-61
2021/11/18 04:39:45;;;;;;;38.05;14.52;;;;;;;6.31;100.00;102629.97;10566913;28;20048;-61
2021/11/18 04:44:47;;;;;;;36.55;13.93;;;;;;;6.31;100.00;102622.16;10567148;28;20051;-61
2021/11/18 04:49:50;;;;;;;33.08;15.23;;;;;;;6.27;100.00;102624.81;10566480;28;20047;-61
2021/11/18 04:54:56;;;;;;;33.60;14.43;;;;;;;6.35;100.00;102614.34;10584604;28;20044;-61
2021/11/18 04:59:59;;;;;;;31.77;12.60;;;;;;;6.36;100.00;102614.31;10566334;28;20066;-62
2021/11/18 05:05:02;;;;;;;35.40;14.52;;;;;;;6.30;100.00;102612.66;10584304;28;20051;-61
2021/11/18 05:10:07;;;;;;;28.58;12.68;;;;;;;6.31;100.00;102614.38;10565843;28;20047;-60
2021/11/18 05:15:14;;;;;;;44.35;14.15;;;;;;;6.38;100.00;102622.97;10565392;28;20043;-61
2021/11/18 05:20:19;;;;;;;35.08;13.48;;;;;;;6.41;100.00;102622.09;10583921;28;20073;-60
2021/11/18 05:25:27;;;;;;;34.78;14.48;;;;;;;6.39;100.00;102603.00;10583422;28;20051;-60
2021/11/18 05:30:32;;;;;;;28.10;11.68;;;;;;;6.36;100.00;102622.13;10582911;28;20125;-61
2021/11/18 05:35:36;;;;;;;38.10;15.25;;;;;;;6.31;100.00;102622.16;10583525;28;20047;-61
2021/11/18 05:40:39;;;;;;;36.95;14.57;;;;;;;6.29;100.00;102613.53;10582495;28;20052;-60
2021/11/18 05:45:42;;;;;;;31.05;14.23;;;;;;;6.31;100.00;102610.91;10583111;28;20054;-60
2021/11/18 05:50:50;;;;;;;38.67;12.57;;;;;;;6.38;100.00;102596.94;10564444;28;20087;-61
2021/11/18 05:55:53;;;;;;;34.00;13.63;;;;;;;6.40;100.00;102608.19;10582263;28;20491;-61
2021/11/18 06:00:56;;;;;;;28.85;13.02;;;;;;;6.43;100.00;102609.91;10563667;28;20043;-60
2021/11/18 06:05:59;;;;;;;36.55;14.88;;;;;;;6.38;100.00;102609.09;10582396;28;20437;-61
2021/11/18 06:11:02;;;;;;;52.30;16.70;;;;;;;6.39;100.00;102610.81;10563730;28;20074;-60
2021/11/18 06:16:05;;;;;;;34.63;14.95;;;;;;;6.45;100.00;102624.63;10581532;28;20506;-60
2021/11/18 06:21:07;;;;;;;39.45;14.60;;;;;;;6.46;100.00;102618.53;10563733;28;20069;-60
2021/11/18 06:26:10;;;;;;;32.63;13.85;;;;;;;6.54;100.00;102622.78;10588219;28;20043;-61
2021/11/18 06:31:13;;;;;;;37.67;15.48;;;;;;;6.49;100.00;102633.28;10590126;28;20529;-61
2021/11/18 06:36:19;;;;;;;44.53;16.23;;;;;;;6.45;100.00;102637.63;10590591;28;20093;-61
2021/11/18 06:41:23;;;;;;;47.50;15.18;;;;;;;6.46;100.00;102654.13;10590401;28;20075;-61
2021/11/18 06:46:26;;;;;;;47.10;15.95;;;;;;;6.44;100.00;102653.25;10589818;28;20047;-60
2021/11/18 06:51:38;;;;;;;41.90;17.05;;;;;;;6.48;100.00;102662.78;10589587;28;20056;-61
2021/11/18 06:56:40;;;;;;;46.22;18.42;;;;;;;6.53;100.00;102660.13;10572054;28;20105;-61
2021/11/18 07:01:45;;;;;;;39.03;13.38;;;;;;;6.58;100.00;102640.97;10571157;28;20047;-61
2021/11/18 07:06:48;;;;;;;38.30;15.55;;;;;;;6.45;100.00;102642.84;10588868;28;20403;-60
2021/11/18 07:11:50;;;;;;;34.88;13.73;;;;;;;6.50;100.00;102650.59;10588705;28;20396;-62
2021/11/18 07:16:53;;;;;;;42.13;15.75;;;;;;;6.46;100.00;102667.13;10570705;28;20043;-61
2021/11/18 07:21:56;;;;;;;35.33;14.15;;;;;;;6.43;100.00;102667.16;10588300;28;20487;-60
2021/11/18 07:26:59;;;;;;;38.78;14.98;;;;;;;6.45;100.00;102673.22;10588237;28;20047;-61
2021/11/18 07:32:02;;;;;;;43.65;16.70;;;;;;;6.46;100.00;102682.75;10569926;28;20039;-61
2021/11/18 07:37:05;;;;;;;36.65;15.68;;;;;;;6.45;100.00;102681.88;10569689;28;20048;-60
2021/11/18 07:42:07;;;;;;;39.42;16.60;;;;;;;6.38;100.00;102680.22;10587370;28;20499;-61
2021/11/18 07:47:10;;;;;;;31.30;14.35;;;;;;;6.42;100.00;102689.72;10587624;28;20050;-61
2021/11/18 07:52:12;;;;;;;31.25;14.20;;;;;;;6.50;100.00;102693.09;10587123;28;20047;-60
2021/11/18 07:57:15;;;;;;;40.55;13.52;;;;;;;6.43;100.00;102706.19;10552588;28;20054;-61
2021/11/18 08:02:17;;;;;;;33.75;14.15;;;;;;;6.33;100.00;102711.47;10586521;28;20043;-61
2021/11/18 08:07:20;;;;;;;34.30;15.35;;;;;;;6.36;100.00;102721.00;10569171;28;20044;-60
2021/11/18 08:12:22;;;;;;;39.10;14.70;;;;;;;6.48;100.00;102715.66;10586349;28;20054;-60
2021/11/18 08:17:24;;;;;;;34.28;14.70;;;;;;;6.53;100.00;102701.75;10568918;28;20043;-60
2021/11/18 08:22:27;;;;;;;37.47;14.20;;;;;;;6.72;100.00;102697.22;10586233;28;20068;-61
2021/11/18 08:27:32;;;;;;;39.35;15.68;;;;;;;6.98;100.00;102699.53;10567772;28;20039;-60
2021/11/18 08:32:35;;;;;;;44.60;16.02;;;;;;;7.06;100.00;102692.47;10585632;28;20047;-60
2021/11/18 08:37:38;;;;;;;38.50;13.90;;;;;;;7.22;100.00;102678.38;10585439;28;20048;-61
2021/11/18 08:42:40;;;;;;;32.28;13.80;;;;;;;8.13;100.00;102678.75;10541781;28;20059;-61
2021/11/18 08:47:43;;;;;;;35.17;13.15;;;;;;;9.02;100.00;102689.31;10542054;28;20059;-60
2021/11/18 08:52:46;;;;;;;31.27;12.00;;;;;;;9.75;93.88;102689.44;10541937;28;20055;-61
2021/11/18 08:57:49;;;;;;;34.85;12.48;;;;;;;10.69;98.64;102675.72;10542527;28;20048;-60
2021/11/18 09:02:53;;;;;;;35.65;11.90;;;;;;;10.05;99.03;102697.44;10542248;28;20050;-60
2021/11/18 09:07:56;;;;;;;33.67;13.43;;;;;;;11.21;89.65;102692.56;10541841;28;20460;-61
2021/11/18 09:12:58;;;;;;;33.28;11.90;;;;;;;12.58;85.20;102696.00;10540577;28;20059;-61
2021/11/18 09:18:01;;;;;;;31.48;12.52;;;;;;;13.39;84.12;102704.44;10540352;28;20052;-61
2021/11/18 09:23:06;;;;;;;36.03;13.07;;;;;;;11.77;82.41;102711.84;10541714;28;20044;-61
2021/11/18 09:28:09;;;;;;;24.17;10.75;;;;;;;14.32;78.65;102722.63;10541031;28;20040;-60
2021/11/18 09:33:13;;;;;;;27.20;9.75;;;;;;;14.62;73.39;102733.63;10541372;28;20044;-61
2021/11/18 09:38:17;;;;;;;29.00;9.60;;;;;;;13.46;75.79;102732.22;10539493;28;20066;-61
2021/11/18 09:43:39;;;;;;;28.58;11.90;;;;;;;14.35;71.32;102748.84;10539664;28;20048;-62
2021/11/18 09:48:56;;;;;;;26.98;9.15;;;;;;;11.21;81.95;102746.75;10540544;28;20055;-61
2021/11/18 09:54:22;;;;;;;21.05;8.52;;;;;;;11.71;90.58;102760.97;10540120;28;20396;-61
2021/11/18 09:59:46;;;;;;;27.58;9.10;;;;;;;14.49;68.67;102757.03;10539577;28;20054;-62
2021/11/18 10:04:53;;;;;;;18.98;8.13;;;;;;;11.43;83.34;102747.88;10540281;28;20044;-61
2021/11/18 10:10:20;;;;;;;24.50;9.45;;;;;;;10.36;93.70;102744.69;10539010;28;20048;-61
2021/11/18 10:15:27;;;;;;;21.15;8.75;;;;;;;9.81;96.95;102740.75;10540149;28;20059;-61
2021/11/18 10:20:33;;;;;;;28.95;9.98;;;;;;;9.56;100.00;102723.00;10540258;28;20055;-62
2021/11/18 10:25:50;;;;;;;28.35;9.05;;;;;;;10.13;97.23;102713.81;10539587;28;20403;-61
2021/11/18 10:31:17;;;;;;;24.90;9.13;;;;;;;9.86;97.07;102720.56;10539411;28;20052;-61
2021/11/18 10:36:25;;;;;;;22.38;9.60;;;;;;;10.34;94.74;102712.44;10539561;28;20119;-61
2021/11/18 10:41:31;;;;;;;24.70;9.00;;;;;;;9.89;95.95;102722.28;10557035;28;20062;-61
2021/11/18 10:46:41;;;;;;;25.98;8.43;;;;;;;10.11;96.90;102736.53;10581294;28;20090;-62
2021/11/18 10:51:55;;;;;;;22.20;7.55;;;;;;;9.92;96.29;102730.03;10581390;28;20449;-62
2021/11/18 10:57:03;;;;;;;31.60;7.93;;;;;;;10.05;94.61;102715.75;10581332;28;20050;-61
2021/11/18 11:02:35;;;;;;;28.90;8.10;;;;;;;10.28;92.17;102709.94;10562973;28;20100;-61
2021/11/18 11:07:39;;;;;;;;;;;;;;;10.09;89.62;102708.72;10560929;28;20083;-62
2021/11/18 11:13:17;;;;;;;24.92;7.68;;;;;;;10.21;91.19;102692.69;10587345;28;20321;-60
2021/11/18 11:18:41;;;;;;;27.38;7.13;;;;;;;10.43;90.55;102702.63;10555292;28;20502;-61
2021/11/18 11:24:24;;;;;;;27.20;7.88;;;;;;;10.20;92.54;102694.44;10570914;28;20048;-61
2021/11/18 11:29:46;;;;;;;24.30;8.50;;;;;;;10.11;90.98;102697.28;10587913;28;20039;-61
2021/11/18 11:34:56;;;;;;;;;;;;;;;9.93;92.42;102692.50;10588205;28;20039;-60
2021/11/18 11:40:09;;;;;;;26.23;6.95;;;;;;;10.27;92.57;102676.81;10569620;28;20302;-60
2021/11/18 11:45:25;;;;;;;30.63;8.02;;;;;;;10.56;90.93;102665.59;10569525;28;20384;-60
2021/11/18 11:50:52;;;;;;;30.35;9.02;;;;;;;10.23;91.80;102652.47;10552987;28;20044;-61
2021/11/18 11:56:15;;;;;;;28.55;7.53;;;;;;;10.05;92.17;102658.16;10587183;28;20040;-60
2021/11/18 12:01:46;;;;;;;25.20;7.32;;;;;;;10.18;91.19;102648.25;10586843;28;20377;-60
2021/11/18 12:07:17;;;;;;;23.00;6.20;;;;;;;9.85;92.90;102637.75;10587190;28;20050;-61
2021/11/18 12:12:29;;;;;;;15.60;6.43;;;;;;;9.82;92.67;102628.22;10586379;28;20048;-61
2021/11/18 12:17:53;;;;;;;25.38;6.45;;;;;;;9.90;91.62;102612.34;10586433;28;20058;-61
2021/11/18 12:23:05;;;;;;;21.23;6.70;;;;;;;9.93;91.66;102629.72;10566957;28;20052;-61
2021/11/18 12:28:11;;;;;;;28.73;8.30;;;;;;;9.93;90.07;102632.31;10567808;28;20415;-61
2021/11/18 12:33:19;;;;;;;20.85;6.90;;;;;;;10.20;90.22;102629.00;10585470;28;20059;-62
2021/11/18 12:39:03;;;;;;;19.05;6.07;;;;;;;9.91;91.92;102624.50;10585583;28;20051;-61
2021/11/18 12:44:05;;;;;;;23.55;5.82;;;;;;;9.84;92.31;102622.97;10538026;28;20047;-61
2021/11/18 12:49:12;;;;;;;26.10;6.65;;;;;;;9.79;92.97;102630.06;10585227;28;20044;-60
2021/11/18 12:54:27;;;;;;;23.85;6.00;;;;;;;9.98;90.50;102626.06;10584707;28;20048;-61
2021/11/18 12:59:46;;;;;;;22.98;6.18;;;;;;;10.00;90.79;102612.94;10566588;28;20054;-60
2021/11/18 13:04:52;;;;;;;17.83;5.47;;;;;;;10.16;89.39;102619.50;10584185;28;20476;-61
2021/11/18 13:10:15;;;;;;;18.15;6.20;;;;;;;10.10;88.59;102606.56;10584382;28;20054;-61
2021/11/18 13:15:21;;;;;;;21.98;5.20;;;;;;;10.34;89.18;102619.94;10584708;28;20126;-60
2021/11/18 13:21:06;;;;;;;24.15;5.85;;;;;;;10.64;87.78;102625.22;10566008;28;20067;-61
2021/11/18 13:26:48;;;;;;;16.27;5.95;;;;;;;10.63;86.73;102620.91;10584393;28;20039;-61
2021/11/18 13:31:52;;;;;;;20.27;4.75;;;;;;;10.49;86.48;102609.06;10582706;28;20498;-61
2021/11/18 13:37:14;;;;;;;22.15;5.15;;;;;;;10.49;87.06;102598.59;10566937;28;20048;-61
2021/11/18 13:42:56;;;;;;;24.83;5.90;;;;;;;10.27;88.50;102593.06;10583384;28;20051;-61
2021/11/18 13:48:07;;;;;;;23.98;4.53;;;;;;;10.21;88.28;102611.53;10581974;28;20039;-60
2021/11/18 13:53:15;;;;;;;19.90;5.43;;;;;;;10.15;90.52;102607.31;10582479;28;20487;-60
2021/11/18 13:58:28;;;;;;;14.77;4.57;;;;;;;10.13;90.64;102603.88;10564599;28;20044;-60
2021/11/18 14:03:54;;;;;;;23.70;5.70;;;;;;;10.07;90.99;102611.03;10567306;28;20043;-60
2021/11/18 14:09:01;;;;;;;20.80;6.07;;;;;;;10.17;91.32;102604.66;10563980;28;20044;-60
2021/11/18 14:14:40;;;;;;;20.23;6.05;;;;;;;10.17;91.51;102608.16;10563947;28;20503;-61
2021/11/18 14:19:54;;;;;;;25.85;6.38;;;;;;;10.25;91.14;102600.06;10581934;28;20051;-61
2021/11/18 14:24:59;;;;;;;22.65;6.03;;;;;;;10.20;92.67;102601.94;10581915;28;20051;-60
2021/11/18 14:30:09;;;;;;;17.80;6.45;;;;;;;10.13;93.04;102590.78;10563773;28;20392;-60
2021/11/18 14:36:09;;;;;;;22.88;6.65;;;;;;;10.21;92.85;102604.53;10563840;28;20044;-61
2021/11/18 14:41:27;;;;;;;22.77;5.95;;;;;;;10.15;94.47;102609.06;10527044;28;20075;-62
2021/11/18 14:46:59;;;;;;;27.75;6.93;;;;;;;10.26;94.14;102632.38;10586674;28;20050;-61
2021/11/18 14:52:16;;;;;;;19.05;5.78;;;;;;;10.18;95.87;102625.56;10576618;28;20074;-61
2021/11/18 14:57:28;;;;;;;32.17;7.40;;;;;;;10.24;93.91;102624.56;10589381;28;20048;-61
2021/11/18 15:02:31;;;;;;;25.25;6.57;;;;;;;10.09;94.95;102640.66;10571144;28;20506;-60
2021/11/18 15:07:34;;;;;;;25.13;5.82;;;;;;;10.09;96.53;102636.28;10571388;28;20050;-61
2021/11/18 15:12:36;;;;;;;26.48;7.18;;;;;;;10.08;96.31;102634.53;10570909;28;20046;-62
2021/11/18 15:17:40;;;;;;;36.55;9.07;;;;;;;10.06;96.57;102636.34;10570659;28;20403;-61
2021/11/18 15:22:42;;;;;;;27.08;6.38;;;;;;;10.02;97.23;102635.56;10588586;28;20051;-60
2021/11/18 15:27:47;;;;;;;21.88;6.50;;;;;;;10.00;97.21;102634.75;10588306;28;20061;-62
2021/11/18 15:32:50;;;;;;;36.70;7.60;;;;;;;9.86;98.55;102645.56;10588244;28;20050;-61
2021/11/18 15:37:54;;;;;;;30.35;7.43;;;;;;;9.98;97.83;102633.06;10569864;28;20059;-60
2021/11/18 15:42:57;;;;;;;33.75;7.35;;;;;;;9.89;98.03;102633.31;10587589;28;20051;-60
2021/11/18 15:48:00;;;;;;;27.73;7.68;;;;;;;9.88;98.66;102629.81;10587301;28;20501;-61
2021/11/18 15:53:04;;;;;;;42.47;7.95;;;;;;;9.83;99.70;102626.47;10587317;28;20044;-61
2021/11/18 15:58:15;;;;;;;29.38;7.13;;;;;;;9.86;99.05;102634.25;10587261;28;20105;-61
2021/11/18 16:03:20;;;;;;;16.83;6.47;;;;;;;9.76;100.00;102630.13;10586884;28;20055;-61
2021/11/18 16:08:27;;;;;;;26.90;8.07;;;;;;;9.85;99.80;102637.75;10569360;28;20055;-61
2021/11/18 16:13:32;;;;;;;33.72;9.32;;;;;;;9.87;99.70;102625.50;10586353;28;20047;-60
2021/11/18 16:18:36;;;;;;;28.42;7.00;;;;;;;9.84;100.00;102631.66;10586866;28;20054;-61
2021/11/18 16:23:42;;;;;;;27.33;8.23;;;;;;;9.76;100.00;102638.84;10585817;28;20604;-61
2021/11/18 16:28:47;;;;;;;34.92;9.50;;;;;;;9.76;100.00;102640.59;10568110;28;20040;-61
2021/11/18 16:33:53;;;;;;;23.08;6.95;;;;;;;9.83;100.00;102635.19;10568424;28;20052;-62
2021/11/18 16:38:56;;;;;;;27.45;6.85;;;;;;;9.59;100.00;102635.78;10585406;28;20043;-61
2021/11/18 16:43:59;;;;;;;30.83;7.18;;;;;;;9.59;100.00;102641.00;10585284;28;20052;-61
2021/11/18 16:49:03;;;;;;;37.88;8.88;;;;;;;9.59;100.00;102641.84;10584904;28;20434;-61
2021/11/18 16:54:06;;;;;;;27.63;7.13;;;;;;;9.70;100.00;102632.88;10566640;28;20054;-61
2021/11/18 16:59:14;;;;;;;18.05;5.72;;;;;;;9.67;100.00;102624.22;10584770;28;20062;-62
2021/11/18 17:04:16;;;;;;;26.30;7.40;;;;;;;9.59;100.00;102638.41;10584276;28;20483;-62
2021/11/18 17:09:20;;;;;;;30.90;8.38;;;;;;;9.60;100.00;102627.91;10565582;28;20050;-61
2021/11/18 17:14:23;;;;;;;24.52;7.50;;;;;;;9.57;100.00;102635.81;10583842;28;20051;-61
2021/11/18 17:19:26;;;;;;;36.35;9.70;;;;;;;9.56;100.00;102644.53;10565736;28;20058;-62
2021/11/18 17:24:29;;;;;;;23.83;8.88;;;;;;;9.68;100.00;102651.22;10565334;28;20044;-61
2021/11/18 17:29:36;;;;;;;25.08;8.00;;;;;;;9.72;100.00;102654.66;10583217;28;20044;-61
2021/11/18 17:34:40;;;;;;;31.88;9.45;;;;;;;9.79;100.00;102664.91;10583413;28;20040;-61
2021/11/18 17:39:48;;;;;;;31.02;9.02;;;;;;;9.72;100.00;102673.81;10582629;28;20051;-61
2021/11/18 17:44:56;;;;;;;20.85;8.45;;;;;;;9.82;100.00;102679.69;10565276;28;20054;-61
2021/11/18 17:49:59;;;;;;;30.55;10.23;;;;;;;9.83;100.00;102676.16;10583047;28;20479;-61
2021/11/18 17:55:05;;;;;;;36.05;10.25;;;;;;;9.78;100.00;102691.97;10582481;28;20043;-62
2021/11/18 18:00:27;;;;;;;29.85;10.60;;;;;;;9.72;100.00;102693.91;10582555;28;20051;-60
2021/11/18 18:05:30;;;;;;;32.88;12.20;;;;;;;9.80;100.00;102700.66;10565967;28;20127;-61
2021/11/18 18:10:34;;;;;;;24.35;10.88;;;;;;;9.70;100.00;102690.44;10582126;28;20047;-60
2021/11/18 18:15:37;;;;;;;33.45;10.43;;;;;;;9.72;100.00;102699.13;10581877;28;20055;-61
2021/11/18 18:20:49;;;;;;;31.15;11.13;;;;;;;9.70;100.00;102691.31;10580985;28;20066;-61
2021/11/18 18:25:52;;;;;;;24.27;10.52;;;;;;;9.77;100.00;102698.13;10581938;28;20385;-62
2021/11/18 18:31:01;;;;;;;28.13;12.25;;;;;;;9.76;100.00;102700.75;10563488;28;20502;-60
2021/11/18 18:36:03;;;;;;;35.15;12.52;;;;;;;9.77;100.00;102703.34;10581947;28;20052;-61
2021/11/18 18:41:08;;;;;;;31.90;11.88;;;;;;;9.69;100.00;102718.34;10581644;28;20505;-61
2021/11/18 18:46:17;;;;;;;25.67;10.82;;;;;;;9.74;100.00;102715.63;10581469;28;20048;-62
2021/11/18 18:51:30;;;;;;;27.15;12.95;;;;;;;9.83;100.00;102721.53;10581670;28;20048;-60
2021/11/18 18:56:32;;;;;;;30.98;12.80;;;;;;;9.88;100.00;102723.16;10581256;28;20475;-62
2021/11/18 19:01:38;;;;;;;26.65;9.50;;;;;;;9.82;100.00;102732.88;10581050;28;20044;-60
2021/11/18 19:06:42;;;;;;;28.08;12.70;;;;;;;9.83;100.00;102729.38;10580972;28;20044;-61
2021/11/18 19:11:47;;;;;;;21.60;11.15;;;;;;;9.70;100.00;102724.44;10580749;28;20048;-60
2021/11/18 19:16:50;;;;;;;37.58;13.50;;;;;;;9.76;100.00;102727.78;10580933;28;20052;-62
2021/11/18 19:21:53;;;;;;;28.70;10.15;;;;;;;9.70;100.00;102733.16;10580408;28;20550;-60
2021/11/18 19:27:01;;;;;;;30.05;11.52;;;;;;;9.65;100.00;102730.66;10529658;28;20123;-61
2021/11/18 19:32:26;;;;;;;27.63;11.00;;;;;;;9.64;100.00;102734.16;10569940;28;20448;-61
2021/11/18 19:37:35;;;;;;;32.88;11.05;;;;;;;9.66;100.00;102729.72;10570394;28;20040;-60
2021/11/18 19:42:39;;;;;;;35.53;10.68;;;;;;;9.75;100.00;102726.06;10587348;28;20067;-60
2021/11/18 19:47:42;;;;;;;29.05;9.52;;;;;;;9.73;100.00;102727.84;10587528;28;20483;-60
2021/11/18 19:52:50;;;;;;;30.33;10.77;;;;;;;9.71;100.00;102731.41;10587113;28;20055;-60
2021/11/18 19:57:55;;;;;;;25.30;10.18;;;;;;;9.77;100.00;102716.44;10587186;28;20497;-60
2021/11/18 20:03:02;;;;;;;30.33;9.85;;;;;;;9.78;100.00;102722.50;10586845;28;20051;-60
2021/11/18 20:08:06;;;;;;;30.90;9.85;;;;;;;9.75;100.00;102733.91;10587266;28;20055;-59
2021/11/18 20:13:11;;;;;;;24.17;9.98;;;;;;;9.82;100.00;102732.88;10586575;28;20391;-60
2021/11/18 20:18:15;;;;;;;32.80;10.85;;;;;;;9.82;100.00;102747.72;10586282;28;20407;-60
2021/11/18 20:23:17;;;;;;;33.22;12.15;;;;;;;9.74;100.00;102740.03;10586045;28;20491;-60
2021/11/18 20:28:20;;;;;;;30.42;11.13;;;;;;;9.74;100.00;102747.03;10585974;28;20051;-60
2021/11/18 20:33:23;;;;;;;32.55;9.95;;;;;;;9.74;100.00;102755.72;10585518;28;20483;-60
2021/11/18 20:38:26;;;;;;;31.88;10.80;;;;;;;9.75;100.00;102770.53;10567753;28;20050;-59
2021/11/18 20:43:31;;;;;;;20.10;8.45;;;;;;;9.78;100.00;102766.97;10584068;28;20423;-60
2021/11/18 20:48:35;;;;;;;23.25;9.98;;;;;;;9.71;100.00;102781.09;10585331;28;20055;-60
2021/11/18 20:53:37;;;;;;;32.13;10.88;;;;;;;9.73;100.00;102784.53;10584524;28;20479;-60
2021/11/18 20:58:40;;;;;;;24.98;10.18;;;;;;;9.72;100.00;102773.22;10584707;28;20447;-60
2021/11/18 21:03:42;;;;;;;20.35;10.25;;;;;;;9.71;100.00;102783.72;10584561;28;20065;-60
2021/11/18 21:08:44;;;;;;;25.95;9.77;;;;;;;9.82;100.00;102790.44;10584307;28;20059;-60
2021/11/18 21:13:47;;;;;;;22.73;9.73;;;;;;;9.75;100.00;102781.00;10584208;28;20046;-60
2021/11/18 21:18:52;;;;;;;33.95;11.20;;;;;;;9.71;100.00;102783.72;10583991;28;20051;-60
2021/11/18 21:23:56;;;;;;;26.42;11.02;;;;;;;9.66;100.00;102775.97;10583303;28;20058;-60
2021/11/18 21:28:59;;;;;;;37.10;12.13;;;;;;;9.70;100.00;102788.09;10583217;28;20483;-60
2021/11/18 21:34:05;;;;;;;31.38;12.68;;;;;;;9.69;100.00;102788.97;10583330;28;20043;-60
2021/11/18 21:39:14;;;;;;;35.63;12.68;;;;;;;9.75;100.00;102794.09;10583232;28;20398;-60
2021/11/18 21:44:18;;;;;;;28.23;12.20;;;;;;;9.69;100.00;102782.91;10583040;28;20053;-60
2021/11/18 21:49:29;;;;;;;22.05;10.15;;;;;;;9.63;100.00;102779.53;10582530;28;20055;-60
2021/11/18 21:54:43;;;;;;;27.53;12.30;;;;;;;9.73;100.00;102780.16;10582979;28;20054;-60
2021/11/18 21:59:47;;;;;;;29.73;13.73;;;;;;;9.78;100.00;102788.75;10582154;28;20483;-60
2021/11/18 22:04:50;;;;;;;32.20;12.10;;;;;;;9.75;100.00;102785.34;10582681;28;20043;-60
2021/11/18 22:09:53;;;;;;;31.27;13.70;;;;;;;9.76;100.00;102790.56;10582258;28;20054;-60
2021/11/18 22:14:59;;;;;;;31.10;14.05;;;;;;;9.75;100.00;102780.13;10582148;28;20044;-59
2021/11/18 22:20:01;;;;;;;38.25;14.23;;;;;;;9.75;100.00;102786.22;10582403;28;20061;-60
2021/11/18 22:25:05;;;;;;;29.33;14.43;;;;;;;9.75;100.00;102785.34;10581678;28;20499;-60
2021/11/18 22:30:10;;;;;;;42.00;15.10;;;;;;;9.81;100.00;102774.75;10563533;28;20483;-59
2021/11/18 22:35:14;;;;;;;31.10;13.98;;;;;;;9.78;100.00;102778.28;10581547;28;20066;-60
2021/11/18 22:40:28;;;;;;;28.67;16.58;;;;;;;9.78;100.00;102775.69;10563919;28;20051;-60
2021/11/18 22:45:32;;;;;;;27.35;14.50;;;;;;;9.82;100.00;102766.88;10581480;28;20048;-61
2021/11/18 22:50:36;;;;;;;36.33;14.90;;;;;;;9.82;100.00;102758.19;10581354;28;20108;-60
2021/11/18 22:55:39;;;;;;;34.80;15.95;;;;;;;9.82;100.00;102759.03;10580908;28;20518;-60
2021/11/18 23:00:44;;;;;;;35.42;16.35;;;;;;;9.84;100.00;102761.63;10580953;28;20597;-60
2021/11/18 23:05:48;;;;;;;36.88;16.58;;;;;;;9.83;100.00;102771.22;10565347;28;20051;-60
2021/11/18 23:10:52;;;;;;;31.77;16.05;;;;;;;9.90;100.00;102769.34;10570916;28;20484;-60